sensor_id;sensor_type;location;lat;lon;timestamp;P1;durP1;ratioP1;P2;durP2;ratioP2
54454;SDS011;40364;52.270;10.546;2024-03-02T00:00:18;16.23;;;8.48;;
54454;SDS011;40364;52.270;10.546;2024-03-02T00:02:46;20.65;;;10.52;;
54454;SDS011;40364;52.270;10.546;2024-03-02T00:05:14;20.52;;;9.68;;
54454;SDS011;40364;52.270;10.546;2024-03-02T00:07:42;22.23;;;10.27;;
54454;SDS011;40364;52.270;10.546;2024-03-02T00:10:11;18.17;;;9.93;;
54454;SDS011;40364;52.270;10.546;2024-03-02T00:12:42;23.80;;;9.73;;
54454;SDS011;40364;52.270;10.546;2024-03-02T00:15:18;21.75;;;9.82;;
54454;SDS011;40364;52.270;10.546;2024-03-02T00:18:00;20.00;;;10.85;;
54454;SDS011;40364;52.270;10.546;2024-03-02T00:20:27;24.48;;;9.48;;
54454;SDS011;40364;52.270;10.546;2024-03-02T00:22:55;22.35;;;10.63;;
54454;SDS011;40364;52.270;10.546;2024-03-02T00:25:34;20.25;;;10.40;;
54454;SDS011;40364;52.270;10.546;2024-03-02T00:28:10;22.15;;;10.07;;
54454;SDS011;40364;52.270;10.546;2024-03-02T00:33:22;25.50;;;10.45;;
54454;SDS011;40364;52.270;10.546;2024-03-02T00:35:52;22.50;;;10.77;;
54454;SDS011;40364;52.270;10.546;2024-03-02T00:38:19;25.48;;;10.07;;
54454;SDS011;40364;52.270;10.546;2024-03-02T00:40:49;20.65;;;10.25;;
54454;SDS011;40364;52.270;10.546;2024-03-02T00:46:13;24.45;;;10.55;;
54454;SDS011;40364;52.270;10.546;2024-03-02T00:48:48;22.75;;;10.52;;
54454;SDS011;40364;52.270;10.546;2024-03-02T00:51:20;21.33;;;10.10;;
54454;SDS011;40364;52.270;10.546;2024-03-02T00:53:47;19.80;;;9.73;;
54454;SDS011;40364;52.270;10.546;2024-03-02T00:56:16;20.73;;;10.65;;
54454;SDS011;40364;52.270;10.546;2024-03-02T00:58:42;21.98;;;10.07;;
54454;SDS011;40364;52.270;10.546;2024-03-02T01:01:09;24.58;;;10.10;;
54454;SDS011;40364;52.270;10.546;2024-03-02T01:03:36;23.73;;;10.95;;
54454;SDS011;40364;52.270;10.546;2024-03-02T01:06:04;22.52;;;10.95;;
54454;SDS011;40364;52.270;10.546;2024-03-02T01:08:32;20.45;;;10.30;;
54454;SDS011;40364;52.270;10.546;2024-03-02T01:10:59;26.70;;;10.68;;
54454;SDS011;40364;52.270;10.546;2024-03-02T01:13:27;25.40;;;10.30;;
54454;SDS011;40364;52.270;10.546;2024-03-02T01:15:54;21.35;;;11.18;;
54454;SDS011;40364;52.270;10.546;2024-03-02T01:18:20;22.13;;;9.88;;
54454;SDS011;40364;52.270;10.546;2024-03-02T01:20:48;24.02;;;10.95;;
54454;SDS011;40364;52.270;10.546;2024-03-02T01:23:16;20.77;;;9.93;;
54454;SDS011;40364;52.270;10.546;2024-03-02T01:25:44;17.33;;;9.55;;
54454;SDS011;40364;52.270;10.546;2024-03-02T01:28:11;24.95;;;10.63;;
54454;SDS011;40364;52.270;10.546;2024-03-02T01:30:39;23.15;;;10.88;;
54454;SDS011;40364;52.270;10.546;2024-03-02T01:33:05;25.05;;;10.38;;
54454;SDS011;40364;52.270;10.546;2024-03-02T01:35:32;25.42;;;11.02;;
54454;SDS011;40364;52.270;10.546;2024-03-02T01:37:59;26.55;;;10.98;;
54454;SDS011;40364;52.270;10.546;2024-03-02T01:40:26;22.33;;;10.57;;
54454;SDS011;40364;52.270;10.546;2024-03-02T01:42:53;22.27;;;10.98;;
54454;SDS011;40364;52.270;10.546;2024-03-02T01:45:23;18.50;;;9.50;;
54454;SDS011;40364;52.270;10.546;2024-03-02T01:47:52;22.00;;;9.82;;
54454;SDS011;40364;52.270;10.546;2024-03-02T01:50:24;26.10;;;11.77;;
54454;SDS011;40364;52.270;10.546;2024-03-02T01:52:52;21.75;;;11.10;;
54454;SDS011;40364;52.270;10.546;2024-03-02T01:55:18;22.77;;;11.05;;
54454;SDS011;40364;52.270;10.546;2024-03-02T01:57:45;28.13;;;12.05;;
54454;SDS011;40364;52.270;10.546;2024-03-02T02:00:13;23.92;;;11.50;;
54454;SDS011;40364;52.270;10.546;2024-03-02T02:02:40;30.02;;;10.35;;
54454;SDS011;40364;52.270;10.546;2024-03-02T02:05:08;22.23;;;11.27;;
54454;SDS011;40364;52.270;10.546;2024-03-02T02:07:35;26.92;;;11.90;;
54454;SDS011;40364;52.270;10.546;2024-03-02T02:10:02;22.25;;;11.07;;
54454;SDS011;40364;52.270;10.546;2024-03-02T02:12:29;26.23;;;11.05;;
54454;SDS011;40364;52.270;10.546;2024-03-02T02:14:56;24.52;;;11.70;;
54454;SDS011;40364;52.270;10.546;2024-03-02T02:17:22;23.52;;;10.50;;
54454;SDS011;40364;52.270;10.546;2024-03-02T02:19:49;25.30;;;11.23;;
54454;SDS011;40364;52.270;10.546;2024-03-02T02:22:17;23.92;;;11.32;;
54454;SDS011;40364;52.270;10.546;2024-03-02T02:24:43;22.38;;;10.57;;
54454;SDS011;40364;52.270;10.546;2024-03-02T02:27:10;23.98;;;11.85;;
54454;SDS011;40364;52.270;10.546;2024-03-02T02:29:37;24.17;;;11.35;;
54454;SDS011;40364;52.270;10.546;2024-03-02T02:32:04;25.08;;;10.98;;
54454;SDS011;40364;52.270;10.546;2024-03-02T02:34:31;26.50;;;12.18;;
54454;SDS011;40364;52.270;10.546;2024-03-02T02:36:58;29.67;;;12.32;;
54454;SDS011;40364;52.270;10.546;2024-03-02T02:39:26;26.90;;;12.25;;
54454;SDS011;40364;52.270;10.546;2024-03-02T02:41:53;26.05;;;12.02;;
54454;SDS011;40364;52.270;10.546;2024-03-02T02:44:19;25.13;;;12.00;;
54454;SDS011;40364;52.270;10.546;2024-03-02T02:46:46;23.70;;;10.85;;
54454;SDS011;40364;52.270;10.546;2024-03-02T02:49:13;21.58;;;11.00;;
54454;SDS011;40364;52.270;10.546;2024-03-02T02:51:39;24.58;;;10.88;;
54454;SDS011;40364;52.270;10.546;2024-03-02T02:54:06;27.23;;;11.25;;
54454;SDS011;40364;52.270;10.546;2024-03-02T02:56:34;26.90;;;11.60;;
54454;SDS011;40364;52.270;10.546;2024-03-02T02:59:01;26.35;;;11.93;;
54454;SDS011;40364;52.270;10.546;2024-03-02T03:01:27;23.83;;;11.52;;
54454;SDS011;40364;52.270;10.546;2024-03-02T03:03:54;25.23;;;10.55;;
54454;SDS011;40364;52.270;10.546;2024-03-02T03:06:21;22.65;;;11.23;;
54454;SDS011;40364;52.270;10.546;2024-03-02T03:08:47;22.05;;;11.15;;
54454;SDS011;40364;52.270;10.546;2024-03-02T03:11:14;25.17;;;11.52;;
54454;SDS011;40364;52.270;10.546;2024-03-02T03:13:42;23.17;;;10.90;;
54454;SDS011;40364;52.270;10.546;2024-03-02T03:16:09;25.20;;;11.48;;
54454;SDS011;40364;52.270;10.546;2024-03-02T03:18:35;26.63;;;11.32;;
54454;SDS011;40364;52.270;10.546;2024-03-02T03:21:03;25.25;;;12.10;;
54454;SDS011;40364;52.270;10.546;2024-03-02T03:23:30;24.52;;;11.95;;
54454;SDS011;40364;52.270;10.546;2024-03-02T03:25:56;22.80;;;11.25;;
54454;SDS011;40364;52.270;10.546;2024-03-02T03:28:23;27.95;;;11.80;;
54454;SDS011;40364;52.270;10.546;2024-03-02T03:30:51;24.52;;;11.50;;
54454;SDS011;40364;52.270;10.546;2024-03-02T03:33:17;26.58;;;12.52;;
54454;SDS011;40364;52.270;10.546;2024-03-02T03:35:44;25.63;;;12.50;;
54454;SDS011;40364;52.270;10.546;2024-03-02T03:38:11;25.17;;;11.48;;
54454;SDS011;40364;52.270;10.546;2024-03-02T03:40:38;32.25;;;12.93;;
54454;SDS011;40364;52.270;10.546;2024-03-02T03:43:04;24.88;;;11.88;;
54454;SDS011;40364;52.270;10.546;2024-03-02T03:45:31;26.10;;;11.35;;
54454;SDS011;40364;52.270;10.546;2024-03-02T03:47:59;27.75;;;12.52;;
54454;SDS011;40364;52.270;10.546;2024-03-02T03:50:26;28.35;;;12.45;;
54454;SDS011;40364;52.270;10.546;2024-03-02T03:52:52;23.77;;;11.10;;
54454;SDS011;40364;52.270;10.546;2024-03-02T03:55:19;31.88;;;12.93;;
54454;SDS011;40364;52.270;10.546;2024-03-02T03:57:46;23.75;;;11.38;;
54454;SDS011;40364;52.270;10.546;2024-03-02T04:00:13;27.40;;;13.07;;
54454;SDS011;40364;52.270;10.546;2024-03-02T04:02:40;26.40;;;12.50;;
54454;SDS011;40364;52.270;10.546;2024-03-02T04:05:08;25.73;;;11.80;;
54454;SDS011;40364;52.270;10.546;2024-03-02T04:07:36;26.10;;;11.43;;
54454;SDS011;40364;52.270;10.546;2024-03-02T04:10:06;27.20;;;12.32;;
54454;SDS011;40364;52.270;10.546;2024-03-02T04:12:33;25.95;;;12.05;;
54454;SDS011;40364;52.270;10.546;2024-03-02T04:15:00;25.45;;;10.90;;
54454;SDS011;40364;52.270;10.546;2024-03-02T04:17:29;23.83;;;11.32;;
54454;SDS011;40364;52.270;10.546;2024-03-02T04:19:57;25.58;;;12.63;;
54454;SDS011;40364;52.270;10.546;2024-03-02T04:22:25;26.27;;;12.15;;
54454;SDS011;40364;52.270;10.546;2024-03-02T04:24:51;24.65;;;11.65;;
54454;SDS011;40364;52.270;10.546;2024-03-02T04:27:18;26.27;;;12.00;;
54454;SDS011;40364;52.270;10.546;2024-03-02T04:29:45;22.45;;;11.40;;
54454;SDS011;40364;52.270;10.546;2024-03-02T04:32:11;26.55;;;12.02;;
54454;SDS011;40364;52.270;10.546;2024-03-02T04:34:38;20.15;;;10.40;;
54454;SDS011;40364;52.270;10.546;2024-03-02T04:37:05;25.92;;;12.10;;
54454;SDS011;40364;52.270;10.546;2024-03-02T04:39:34;24.27;;;12.00;;
54454;SDS011;40364;52.270;10.546;2024-03-02T04:42:01;27.48;;;11.52;;
54454;SDS011;40364;52.270;10.546;2024-03-02T04:44:27;25.25;;;12.95;;
54454;SDS011;40364;52.270;10.546;2024-03-02T04:46:54;23.77;;;11.27;;
54454;SDS011;40364;52.270;10.546;2024-03-02T04:49:21;28.27;;;11.73;;
54454;SDS011;40364;52.270;10.546;2024-03-02T04:51:47;22.55;;;11.13;;
54454;SDS011;40364;52.270;10.546;2024-03-02T04:54:14;21.67;;;10.73;;
54454;SDS011;40364;52.270;10.546;2024-03-02T04:56:42;26.40;;;11.85;;
54454;SDS011;40364;52.270;10.546;2024-03-02T04:59:15;20.23;;;10.98;;
54454;SDS011;40364;52.270;10.546;2024-03-02T05:01:43;23.83;;;11.82;;
54454;SDS011;40364;52.270;10.546;2024-03-02T05:04:10;26.67;;;11.10;;
54454;SDS011;40364;52.270;10.546;2024-03-02T05:06:37;25.55;;;11.30;;
54454;SDS011;40364;52.270;10.546;2024-03-02T05:09:05;22.08;;;11.13;;
54454;SDS011;40364;52.270;10.546;2024-03-02T05:11:32;23.35;;;10.95;;
54454;SDS011;40364;52.270;10.546;2024-03-02T05:14:14;21.88;;;11.02;;
54454;SDS011;40364;52.270;10.546;2024-03-02T05:16:40;22.23;;;9.90;;
54454;SDS011;40364;52.270;10.546;2024-03-02T05:19:07;23.10;;;10.85;;
54454;SDS011;40364;52.270;10.546;2024-03-02T05:21:34;24.40;;;11.57;;
54454;SDS011;40364;52.270;10.546;2024-03-02T05:24:01;26.13;;;11.93;;
54454;SDS011;40364;52.270;10.546;2024-03-02T05:26:27;21.00;;;10.52;;
54454;SDS011;40364;52.270;10.546;2024-03-02T05:28:54;25.52;;;11.20;;
54454;SDS011;40364;52.270;10.546;2024-03-02T05:31:22;27.25;;;11.80;;
54454;SDS011;40364;52.270;10.546;2024-03-02T05:33:48;24.35;;;11.07;;
54454;SDS011;40364;52.270;10.546;2024-03-02T05:36:15;24.02;;;10.77;;
54454;SDS011;40364;52.270;10.546;2024-03-02T05:38:42;25.80;;;11.95;;
54454;SDS011;40364;52.270;10.546;2024-03-02T05:41:08;24.80;;;11.13;;
54454;SDS011;40364;52.270;10.546;2024-03-02T05:43:36;24.75;;;11.10;;
54454;SDS011;40364;52.270;10.546;2024-03-02T05:46:03;24.80;;;10.60;;
54454;SDS011;40364;52.270;10.546;2024-03-02T05:48:31;23.55;;;11.35;;
54454;SDS011;40364;52.270;10.546;2024-03-02T05:50:57;26.02;;;11.82;;
54454;SDS011;40364;52.270;10.546;2024-03-02T05:53:24;20.67;;;10.73;;
54454;SDS011;40364;52.270;10.546;2024-03-02T05:55:51;21.38;;;11.55;;
54454;SDS011;40364;52.270;10.546;2024-03-02T05:58:20;25.50;;;11.27;;
54454;SDS011;40364;52.270;10.546;2024-03-02T06:00:57;26.13;;;12.18;;
54454;SDS011;40364;52.270;10.546;2024-03-02T06:03:24;24.00;;;11.70;;
54454;SDS011;40364;52.270;10.546;2024-03-02T06:05:52;24.52;;;11.10;;
54454;SDS011;40364;52.270;10.546;2024-03-02T06:08:19;25.85;;;12.02;;
54454;SDS011;40364;52.270;10.546;2024-03-02T06:10:45;23.23;;;12.07;;
54454;SDS011;40364;52.270;10.546;2024-03-02T06:13:12;26.50;;;11.85;;
54454;SDS011;40364;52.270;10.546;2024-03-02T06:15:38;31.73;;;13.80;;
54454;SDS011;40364;52.270;10.546;2024-03-02T06:18:05;27.67;;;12.63;;
54454;SDS011;40364;52.270;10.546;2024-03-02T06:20:33;27.90;;;13.55;;
54454;SDS011;40364;52.270;10.546;2024-03-02T06:23:01;25.33;;;12.27;;
54454;SDS011;40364;52.270;10.546;2024-03-02T06:25:28;26.88;;;12.10;;
54454;SDS011;40364;52.270;10.546;2024-03-02T06:27:55;30.85;;;13.80;;
54454;SDS011;40364;52.270;10.546;2024-03-02T06:30:24;24.27;;;12.18;;
54454;SDS011;40364;52.270;10.546;2024-03-02T06:32:50;32.15;;;13.15;;
54454;SDS011;40364;52.270;10.546;2024-03-02T06:35:17;24.27;;;11.25;;
54454;SDS011;40364;52.270;10.546;2024-03-02T06:37:43;24.73;;;11.50;;
54454;SDS011;40364;52.270;10.546;2024-03-02T06:40:11;27.65;;;11.68;;
54454;SDS011;40364;52.270;10.546;2024-03-02T06:42:39;27.42;;;13.15;;
54454;SDS011;40364;52.270;10.546;2024-03-02T06:45:06;25.60;;;12.50;;
54454;SDS011;40364;52.270;10.546;2024-03-02T06:47:33;28.45;;;12.77;;
54454;SDS011;40364;52.270;10.546;2024-03-02T06:49:59;27.45;;;11.95;;
54454;SDS011;40364;52.270;10.546;2024-03-02T06:52:26;24.65;;;12.55;;
54454;SDS011;40364;52.270;10.546;2024-03-02T06:54:52;24.85;;;12.13;;
54454;SDS011;40364;52.270;10.546;2024-03-02T06:57:20;23.08;;;11.30;;
54454;SDS011;40364;52.270;10.546;2024-03-02T06:59:57;27.67;;;12.05;;
54454;SDS011;40364;52.270;10.546;2024-03-02T07:02:25;27.23;;;12.57;;
54454;SDS011;40364;52.270;10.546;2024-03-02T07:05:12;24.33;;;12.30;;
54454;SDS011;40364;52.270;10.546;2024-03-02T07:07:39;26.25;;;12.93;;
54454;SDS011;40364;52.270;10.546;2024-03-02T07:10:09;31.38;;;13.00;;
54454;SDS011;40364;52.270;10.546;2024-03-02T07:15:18;26.48;;;11.25;;
54454;SDS011;40364;52.270;10.546;2024-03-02T07:18:02;27.63;;;12.13;;
54454;SDS011;40364;52.270;10.546;2024-03-02T07:20:38;29.15;;;13.00;;
54454;SDS011;40364;52.270;10.546;2024-03-02T07:23:05;27.88;;;12.50;;
54454;SDS011;40364;52.270;10.546;2024-03-02T07:28:19;28.63;;;13.18;;
54454;SDS011;40364;52.270;10.546;2024-03-02T07:30:57;30.60;;;12.75;;
54454;SDS011;40364;52.270;10.546;2024-03-02T07:33:25;31.58;;;13.35;;
54454;SDS011;40364;52.270;10.546;2024-03-02T07:38:57;30.30;;;13.60;;
54454;SDS011;40364;52.270;10.546;2024-03-02T07:41:41;29.02;;;14.05;;
54454;SDS011;40364;52.270;10.546;2024-03-02T07:44:10;28.38;;;12.57;;
54454;SDS011;40364;52.270;10.546;2024-03-02T07:46:39;28.17;;;13.88;;
54454;SDS011;40364;52.270;10.546;2024-03-02T07:49:06;26.35;;;13.40;;
54454;SDS011;40364;52.270;10.546;2024-03-02T07:51:33;26.30;;;12.57;;
54454;SDS011;40364;52.270;10.546;2024-03-02T07:53:59;34.35;;;13.15;;
54454;SDS011;40364;52.270;10.546;2024-03-02T07:56:26;29.92;;;13.18;;
54454;SDS011;40364;52.270;10.546;2024-03-02T07:58:53;27.17;;;13.52;;
54454;SDS011;40364;52.270;10.546;2024-03-02T08:01:23;27.45;;;12.88;;
54454;SDS011;40364;52.270;10.546;2024-03-02T08:03:50;30.10;;;13.82;;
54454;SDS011;40364;52.270;10.546;2024-03-02T08:06:17;29.10;;;13.32;;
54454;SDS011;40364;52.270;10.546;2024-03-02T08:08:46;26.08;;;12.00;;
54454;SDS011;40364;52.270;10.546;2024-03-02T08:11:13;25.98;;;12.20;;
54454;SDS011;40364;52.270;10.546;2024-03-02T08:13:39;29.50;;;13.95;;
54454;SDS011;40364;52.270;10.546;2024-03-02T08:16:06;30.40;;;13.45;;
54454;SDS011;40364;52.270;10.546;2024-03-02T08:18:35;26.52;;;13.48;;
54454;SDS011;40364;52.270;10.546;2024-03-02T08:21:02;26.10;;;13.10;;
54454;SDS011;40364;52.270;10.546;2024-03-02T08:23:29;31.83;;;13.13;;
54454;SDS011;40364;52.270;10.546;2024-03-02T08:25:57;32.28;;;13.88;;
54454;SDS011;40364;52.270;10.546;2024-03-02T08:28:23;25.58;;;13.10;;
54454;SDS011;40364;52.270;10.546;2024-03-02T08:30:50;32.03;;;14.05;;
54454;SDS011;40364;52.270;10.546;2024-03-02T08:33:17;30.38;;;13.98;;
54454;SDS011;40364;52.270;10.546;2024-03-02T08:35:45;29.52;;;13.38;;
54454;SDS011;40364;52.270;10.546;2024-03-02T08:38:12;27.00;;;13.07;;
54454;SDS011;40364;52.270;10.546;2024-03-02T08:40:38;34.65;;;14.98;;
54454;SDS011;40364;52.270;10.546;2024-03-02T08:43:05;26.30;;;13.10;;
54454;SDS011;40364;52.270;10.546;2024-03-02T08:45:33;30.48;;;12.60;;
54454;SDS011;40364;52.270;10.546;2024-03-02T08:48:01;29.20;;;13.15;;
54454;SDS011;40364;52.270;10.546;2024-03-02T08:50:27;26.13;;;12.63;;
54454;SDS011;40364;52.270;10.546;2024-03-02T08:52:55;25.83;;;12.75;;
54454;SDS011;40364;52.270;10.546;2024-03-02T08:55:22;29.15;;;13.18;;
54454;SDS011;40364;52.270;10.546;2024-03-02T08:57:49;27.48;;;12.93;;
54454;SDS011;40364;52.270;10.546;2024-03-02T09:00:16;24.95;;;12.07;;
54454;SDS011;40364;52.270;10.546;2024-03-02T09:02:43;31.08;;;13.05;;
54454;SDS011;40364;52.270;10.546;2024-03-02T09:05:11;27.20;;;13.15;;
54454;SDS011;40364;52.270;10.546;2024-03-02T09:07:38;27.52;;;13.52;;
54454;SDS011;40364;52.270;10.546;2024-03-02T09:10:07;25.90;;;13.50;;
54454;SDS011;40364;52.270;10.546;2024-03-02T09:12:35;26.58;;;13.55;;
54454;SDS011;40364;52.270;10.546;2024-03-02T09:15:02;27.30;;;12.23;;
54454;SDS011;40364;52.270;10.546;2024-03-02T09:17:29;26.38;;;12.10;;
54454;SDS011;40364;52.270;10.546;2024-03-02T09:19:56;28.00;;;13.70;;
54454;SDS011;40364;52.270;10.546;2024-03-02T09:22:23;28.20;;;12.57;;
54454;SDS011;40364;52.270;10.546;2024-03-02T09:24:49;26.30;;;12.90;;
54454;SDS011;40364;52.270;10.546;2024-03-02T09:27:17;26.35;;;12.65;;
54454;SDS011;40364;52.270;10.546;2024-03-02T09:29:44;26.05;;;11.88;;
54454;SDS011;40364;52.270;10.546;2024-03-02T09:32:12;29.30;;;13.55;;
54454;SDS011;40364;52.270;10.546;2024-03-02T09:34:39;28.55;;;13.32;;
54454;SDS011;40364;52.270;10.546;2024-03-02T09:37:06;29.23;;;13.95;;
54454;SDS011;40364;52.270;10.546;2024-03-02T09:39:33;22.75;;;12.07;;
54454;SDS011;40364;52.270;10.546;2024-03-02T09:41:59;25.05;;;12.85;;
54454;SDS011;40364;52.270;10.546;2024-03-02T09:44:29;22.30;;;12.20;;
54454;SDS011;40364;52.270;10.546;2024-03-02T09:46:55;26.45;;;13.20;;
54454;SDS011;40364;52.270;10.546;2024-03-02T09:49:22;23.83;;;12.52;;
54454;SDS011;40364;52.270;10.546;2024-03-02T09:51:49;24.08;;;12.10;;
54454;SDS011;40364;52.270;10.546;2024-03-02T09:54:16;24.20;;;12.60;;
54454;SDS011;40364;52.270;10.546;2024-03-02T09:56:43;23.23;;;12.18;;
54454;SDS011;40364;52.270;10.546;2024-03-02T09:59:12;27.55;;;11.85;;
54454;SDS011;40364;52.270;10.546;2024-03-02T10:01:56;23.50;;;11.57;;
54454;SDS011;40364;52.270;10.546;2024-03-02T10:04:25;24.25;;;11.80;;
54454;SDS011;40364;52.270;10.546;2024-03-02T10:06:52;22.30;;;11.18;;
54454;SDS011;40364;52.270;10.546;2024-03-02T10:09:36;23.83;;;11.45;;
54454;SDS011;40364;52.270;10.546;2024-03-02T10:12:06;22.13;;;11.20;;
54454;SDS011;40364;52.270;10.546;2024-03-02T10:15:02;21.45;;;11.18;;
54454;SDS011;40364;52.270;10.546;2024-03-02T10:17:33;21.95;;;11.35;;
54454;SDS011;40364;52.270;10.546;2024-03-02T10:20:04;31.17;;;11.43;;
54454;SDS011;40364;52.270;10.546;2024-03-02T10:22:58;22.25;;;11.07;;
54454;SDS011;40364;52.270;10.546;2024-03-02T10:25:36;23.35;;;11.43;;
54454;SDS011;40364;52.270;10.546;2024-03-02T10:28:03;23.05;;;11.60;;
54454;SDS011;40364;52.270;10.546;2024-03-02T10:30:34;20.23;;;10.88;;
54454;SDS011;40364;52.270;10.546;2024-03-02T10:33:02;22.80;;;12.27;;
54454;SDS011;40364;52.270;10.546;2024-03-02T10:35:29;26.10;;;11.80;;
54454;SDS011;40364;52.270;10.546;2024-03-02T10:37:59;22.08;;;11.45;;
54454;SDS011;40364;52.270;10.546;2024-03-02T10:40:26;23.25;;;11.85;;
54454;SDS011;40364;52.270;10.546;2024-03-02T10:42:53;21.40;;;11.93;;
54454;SDS011;40364;52.270;10.546;2024-03-02T10:45:20;24.48;;;12.40;;
54454;SDS011;40364;52.270;10.546;2024-03-02T10:47:47;26.30;;;12.10;;
54454;SDS011;40364;52.270;10.546;2024-03-02T10:50:16;22.48;;;12.20;;
54454;SDS011;40364;52.270;10.546;2024-03-02T10:52:42;20.70;;;11.25;;
54454;SDS011;40364;52.270;10.546;2024-03-02T10:55:09;19.50;;;10.95;;
54454;SDS011;40364;52.270;10.546;2024-03-02T10:57:40;19.92;;;10.25;;
54454;SDS011;40364;52.270;10.546;2024-03-02T11:00:11;23.75;;;11.45;;
54454;SDS011;40364;52.270;10.546;2024-03-02T11:02:40;18.85;;;10.90;;
54454;SDS011;40364;52.270;10.546;2024-03-02T11:05:13;17.73;;;8.85;;
54454;SDS011;40364;52.270;10.546;2024-03-02T11:07:57;15.05;;;8.02;;
54454;SDS011;40364;52.270;10.546;2024-03-02T11:10:29;13.57;;;7.78;;
54454;SDS011;40364;52.270;10.546;2024-03-02T11:13:02;10.10;;;5.88;;
54454;SDS011;40364;52.270;10.546;2024-03-02T11:15:32;16.55;;;7.53;;
54454;SDS011;40364;52.270;10.546;2024-03-02T11:18:01;11.57;;;6.32;;
54454;SDS011;40364;52.270;10.546;2024-03-02T11:20:34;14.63;;;7.57;;
54454;SDS011;40364;52.270;10.546;2024-03-02T11:23:07;18.17;;;8.27;;
54454;SDS011;40364;52.270;10.546;2024-03-02T11:25:34;12.20;;;6.88;;
54454;SDS011;40364;52.270;10.546;2024-03-02T11:28:02;17.13;;;6.93;;
54454;SDS011;40364;52.270;10.546;2024-03-02T11:33:16;15.48;;;7.97;;
54454;SDS011;40364;52.270;10.546;2024-03-02T11:35:51;18.25;;;8.18;;
54454;SDS011;40364;52.270;10.546;2024-03-02T11:38:18;14.55;;;8.32;;
54454;SDS011;40364;52.270;10.546;2024-03-02T11:40:45;13.80;;;7.72;;
54454;SDS011;40364;52.270;10.546;2024-03-02T11:43:11;15.13;;;7.03;;
54454;SDS011;40364;52.270;10.546;2024-03-02T11:45:38;16.77;;;8.43;;
54454;SDS011;40364;52.270;10.546;2024-03-02T11:48:10;14.10;;;8.10;;
54454;SDS011;40364;52.270;10.546;2024-03-02T11:50:40;17.73;;;8.23;;
54454;SDS011;40364;52.270;10.546;2024-03-02T11:53:10;19.00;;;9.13;;
54454;SDS011;40364;52.270;10.546;2024-03-02T11:55:39;17.23;;;9.35;;
54454;SDS011;40364;52.270;10.546;2024-03-02T11:58:06;18.73;;;9.57;;
54454;SDS011;40364;52.270;10.546;2024-03-02T12:00:33;15.60;;;8.25;;
54454;SDS011;40364;52.270;10.546;2024-03-02T12:03:00;15.98;;;7.97;;
54454;SDS011;40364;52.270;10.546;2024-03-02T12:05:28;15.68;;;9.05;;
54454;SDS011;40364;52.270;10.546;2024-03-02T12:07:55;17.08;;;9.43;;
54454;SDS011;40364;52.270;10.546;2024-03-02T12:10:24;17.83;;;9.55;;
54454;SDS011;40364;52.270;10.546;2024-03-02T12:12:57;15.35;;;8.93;;
54454;SDS011;40364;52.270;10.546;2024-03-02T12:15:25;14.82;;;8.30;;
54454;SDS011;40364;52.270;10.546;2024-03-02T12:17:53;15.82;;;8.32;;
54454;SDS011;40364;52.270;10.546;2024-03-02T12:20:21;13.77;;;7.90;;
54454;SDS011;40364;52.270;10.546;2024-03-02T12:22:49;13.30;;;7.80;;
54454;SDS011;40364;52.270;10.546;2024-03-02T12:25:17;14.60;;;7.60;;
54454;SDS011;40364;52.270;10.546;2024-03-02T12:27:45;15.00;;;8.45;;
54454;SDS011;40364;52.270;10.546;2024-03-02T12:30:12;15.38;;;7.15;;
54454;SDS011;40364;52.270;10.546;2024-03-02T12:32:40;11.80;;;6.95;;
54454;SDS011;40364;52.270;10.546;2024-03-02T12:35:07;13.50;;;7.25;;
54454;SDS011;40364;52.270;10.546;2024-03-02T12:37:41;10.98;;;6.70;;
54454;SDS011;40364;52.270;10.546;2024-03-02T12:40:09;11.07;;;6.07;;
54454;SDS011;40364;52.270;10.546;2024-03-02T12:42:36;10.80;;;6.63;;
54454;SDS011;40364;52.270;10.546;2024-03-02T12:45:05;10.55;;;6.18;;
54454;SDS011;40364;52.270;10.546;2024-03-02T12:47:32;13.43;;;8.00;;
54454;SDS011;40364;52.270;10.546;2024-03-02T12:49:59;12.13;;;6.97;;
54454;SDS011;40364;52.270;10.546;2024-03-02T12:52:26;10.55;;;6.65;;
54454;SDS011;40364;52.270;10.546;2024-03-02T12:54:53;11.50;;;6.50;;
54454;SDS011;40364;52.270;10.546;2024-03-02T12:57:24;11.07;;;6.63;;
54454;SDS011;40364;52.270;10.546;2024-03-02T12:59:52;13.07;;;6.72;;
54454;SDS011;40364;52.270;10.546;2024-03-02T13:02:26;8.45;;;5.55;;
54454;SDS011;40364;52.270;10.546;2024-03-02T13:04:54;7.80;;;5.30;;
54454;SDS011;40364;52.270;10.546;2024-03-02T13:07:21;9.18;;;5.45;;
54454;SDS011;40364;52.270;10.546;2024-03-02T13:09:50;9.20;;;5.35;;
54454;SDS011;40364;52.270;10.546;2024-03-02T13:12:17;7.45;;;4.65;;
54454;SDS011;40364;52.270;10.546;2024-03-02T13:14:47;8.07;;;5.00;;
54454;SDS011;40364;52.270;10.546;2024-03-02T13:17:15;8.27;;;4.65;;
54454;SDS011;40364;52.270;10.546;2024-03-02T13:19:50;7.45;;;4.75;;
54454;SDS011;40364;52.270;10.546;2024-03-02T13:22:17;11.35;;;5.18;;
54454;SDS011;40364;52.270;10.546;2024-03-02T13:24:44;7.22;;;4.28;;
54454;SDS011;40364;52.270;10.546;2024-03-02T13:27:11;8.95;;;5.45;;
54454;SDS011;40364;52.270;10.546;2024-03-02T13:29:38;9.75;;;5.15;;
54454;SDS011;40364;52.270;10.546;2024-03-02T13:32:05;10.02;;;5.07;;
54454;SDS011;40364;52.270;10.546;2024-03-02T13:34:31;8.15;;;4.78;;
54454;SDS011;40364;52.270;10.546;2024-03-02T13:36:59;8.70;;;5.00;;
54454;SDS011;40364;52.270;10.546;2024-03-02T13:39:27;10.18;;;5.20;;
54454;SDS011;40364;52.270;10.546;2024-03-02T13:41:56;9.65;;;4.65;;
54454;SDS011;40364;52.270;10.546;2024-03-02T13:44:28;7.10;;;4.38;;
54454;SDS011;40364;52.270;10.546;2024-03-02T13:46:55;7.88;;;4.90;;
54454;SDS011;40364;52.270;10.546;2024-03-02T13:49:23;8.35;;;4.40;;
54454;SDS011;40364;52.270;10.546;2024-03-02T13:51:53;7.43;;;4.65;;
54454;SDS011;40364;52.270;10.546;2024-03-02T13:54:21;6.90;;;3.92;;
54454;SDS011;40364;52.270;10.546;2024-03-02T13:56:48;7.10;;;4.38;;
54454;SDS011;40364;52.270;10.546;2024-03-02T13:59:15;10.27;;;4.45;;
54454;SDS011;40364;52.270;10.546;2024-03-02T14:01:41;7.72;;;4.30;;
54454;SDS011;40364;52.270;10.546;2024-03-02T14:04:08;9.57;;;4.28;;
54454;SDS011;40364;52.270;10.546;2024-03-02T14:06:35;7.55;;;4.22;;
54454;SDS011;40364;52.270;10.546;2024-03-02T14:09:01;7.82;;;4.50;;
54454;SDS011;40364;52.270;10.546;2024-03-02T14:11:29;9.57;;;4.70;;
54454;SDS011;40364;52.270;10.546;2024-03-02T14:13:56;7.97;;;4.47;;
54454;SDS011;40364;52.270;10.546;2024-03-02T14:16:23;7.72;;;4.20;;
54454;SDS011;40364;52.270;10.546;2024-03-02T14:18:49;9.27;;;5.00;;
54454;SDS011;40364;52.270;10.546;2024-03-02T14:21:16;8.40;;;4.40;;
54454;SDS011;40364;52.270;10.546;2024-03-02T14:23:43;8.73;;;4.60;;
54454;SDS011;40364;52.270;10.546;2024-03-02T14:26:09;9.30;;;4.43;;
54454;SDS011;40364;52.270;10.546;2024-03-02T14:28:37;7.35;;;4.25;;
54454;SDS011;40364;52.270;10.546;2024-03-02T14:31:04;8.45;;;4.15;;
54454;SDS011;40364;52.270;10.546;2024-03-02T14:33:31;8.43;;;4.35;;
54454;SDS011;40364;52.270;10.546;2024-03-02T14:35:57;10.65;;;4.60;;